Airfield :
LOGIN :

Register | Disclaimer

   EN    FR    IT 

 










Legend :    VFR   Marginal VFR   IFR   Intensive IFR   Very Intensive IFR
Visi :
Ceiling :
>= 8 km
>= 3000ft
5 to 8 km
1000 to 3000 ft
1500m to 5 km
500 to 1000 ft
800 to 1500m
200 to 500 ft
< 800m
< 200 ft
Symbols :   Thunderstorms  Fog  Heavy snow  Heavy precipitations  Wind > 20 kt
SIGMETs :     Misc.  Thunderstorms  Icing  Turbulence  Mountain Waves  Volcanic Ashes







- Airport Elevation : 194 ft


EBCV - Chièvres

CURRENT METAR :
  • 221037Z AUTO 18014KT 1300 -SN OVC009/// M01/M02 Q1006 AMB

EXPIRED METARs :
  • 221014Z AUTO 18014KT 1400 -SN OVC011/// M01/M02 Q1006 AMB
  • 220955Z AUTO 18014KT 2000 -SN OVC009/// M02/M02 Q1006 YLO
  • 220953Z AUTO 18013KT 1700 -SN OVC009/// M02/M02 Q1006 YLO
  • 220938Z AUTO 18013KT 1300 -SN OVC009/// M02/M02 Q1006 AMB
  • 220914Z AUTO 18014KT 0750 SN OVC011/// M02/M03 Q1007 RED
  • 220855Z AUTO 18014KT 1400 -SN OVC014/// M02/M03 Q1007 AMB
  • 220844Z AUTO 18016KT 3500 -SN OVC014/// M02/M04 Q1007 YLO
  • 220825Z AUTO 18016KT 7000 BKN015/// OVC053/// M02/M04 Q1007 WHT
  • 220755Z AUTO 18015KT 5000 -SN BKN045/// BKN080/// BKN110/// M02/M04 Q1008 WHT
  • 220744Z AUTO 18015KT 4700 -SN FEW043/// BKN056/// BKN110/// M02/M04 Q1008 GRN

TAF TAF EBCV
Valid from the 22 at 10:00 until the 22 at 19:00 UTC


220841Z 2210/2219 18010KT 3700 -SN BKN010
TEMPO 2210/2214 19010G20KT 2000 SN BKN005 BKN010
PROB40
TEMPO 2208/2214 19012G25KT 1000 SN BKN005
BECMG 2213/2215 6000 BKN012 BY EBWM
No reported NOTAMs for that airfield.



MET'MAP, your aeronautical weather chart ! - Copyright ORBIFLY December 2007 - Disclaimer

ORBIFLY MET'MAP TEAM :

Programming & Development : Alexandra Zaïnal
Concept & Development : Baudouin d'Aumeries
Co-Development & Prog : Marc-Olivier Méhu
Technical & hardware support : Manuel Goepfert

Contact : metmap@orbifly.com




SOURCES & CREDITS :

   NOAA